createdAt,value
2023-05-17T00:01:52.762Z,2.00
2023-05-17T00:04:21.667Z,2.00
2023-05-17T00:06:50.538Z,2.53
2023-05-17T00:09:19.410Z,1.63
2023-05-17T00:11:48.169Z,1.77
2023-05-17T00:14:18.391Z,1.87
2023-05-17T00:16:47.267Z,1.67
2023-05-17T00:19:16.306Z,2.20
2023-05-17T00:21:45.334Z,1.70
2023-05-17T00:24:13.988Z,2.43
2023-05-17T00:26:42.562Z,2.20
2023-05-17T00:29:11.251Z,2.10
2023-05-17T00:31:41.429Z,2.00
2023-05-17T00:34:10.228Z,2.10
2023-05-17T00:36:39.002Z,2.70
2023-05-17T00:39:07.815Z,1.90
2023-05-17T00:41:36.609Z,1.70
2023-05-17T00:44:05.383Z,1.73
2023-05-17T00:46:35.033Z,2.00
2023-05-17T00:49:05.365Z,1.70
2023-05-17T00:51:36.027Z,1.60
2023-05-17T00:54:06.572Z,1.50
2023-05-17T00:56:35.505Z,1.73
2023-05-17T00:59:06.466Z,1.63
2023-05-17T01:01:36.906Z,1.60
2023-05-17T01:04:07.538Z,1.50
2023-05-17T01:06:37.371Z,1.70
2023-05-17T01:09:09.767Z,1.70
2023-05-17T01:11:46.102Z,2.20
2023-05-17T01:14:29.684Z,1.70
2023-05-17T01:17:02.572Z,1.73
2023-05-17T01:19:58.990Z,1.70
2023-05-17T01:22:37.873Z,2.10
2023-05-17T01:25:21.300Z,1.63
2023-05-17T01:27:53.569Z,1.60
2023-05-17T01:30:24.107Z,1.77
2023-05-17T01:32:54.430Z,1.87
2023-05-17T01:35:23.269Z,1.50
2023-05-17T01:37:53.429Z,1.90
2023-05-17T01:40:23.140Z,1.90
2023-05-17T01:42:58.820Z,1.50
2023-05-17T01:45:33.085Z,1.70
2023-05-17T01:48:12.900Z,1.30
2023-05-17T01:50:43.304Z,1.70
2023-05-17T01:53:19.101Z,1.60
2023-05-17T01:55:52.930Z,1.73
2023-05-17T01:58:29.012Z,2.53
2023-05-17T02:00:59.619Z,1.90
2023-05-17T02:03:30.556Z,1.93
2023-05-17T02:05:59.488Z,2.83
2023-05-17T02:08:28.296Z,2.40
2023-05-17T02:10:57.163Z,4.13
2023-05-17T02:13:27.543Z,2.93
2023-05-17T02:15:56.353Z,2.10
2023-05-17T02:18:27.011Z,2.63
2023-05-17T02:20:55.939Z,2.03
2023-05-17T02:23:25.345Z,2.50
2023-05-17T02:25:54.852Z,1.80
2023-05-17T02:28:23.755Z,4.40
2023-05-17T02:30:54.276Z,2.20
2023-05-17T02:33:23.192Z,2.50
2023-05-17T02:35:52.037Z,2.70
2023-05-17T02:38:21.964Z,2.07
2023-05-17T02:40:50.872Z,2.70
2023-05-17T02:43:19.569Z,2.60
2023-05-17T02:45:48.334Z,2.37
2023-05-17T02:48:18.875Z,3.50
2023-05-17T02:50:48.051Z,2.40
2023-05-17T02:53:16.939Z,2.20
2023-05-17T02:55:45.824Z,2.20
2023-05-17T02:58:15.593Z,2.50
2023-05-17T03:00:46.717Z,4.40
2023-05-17T03:03:18.746Z,4.87
2023-05-17T03:05:47.639Z,2.10
2023-05-17T03:08:16.621Z,1.80
2023-05-17T03:10:46.429Z,2.30
2023-05-17T03:13:15.341Z,2.30
2023-05-17T03:15:44.103Z,1.70
2023-05-17T03:18:13.214Z,2.23
2023-05-17T03:20:43.831Z,2.13
2023-05-17T03:23:12.769Z,2.10
2023-05-17T03:25:51.056Z,2.30
2023-05-17T03:28:20.781Z,2.13
2023-05-17T03:30:50.117Z,1.87
2023-05-17T03:33:19.991Z,2.17
2023-05-17T03:35:50.750Z,2.10
2023-05-17T03:38:19.607Z,1.80
2023-05-17T03:40:48.572Z,2.20
2023-05-17T03:43:17.382Z,2.37
2023-05-17T03:45:46.443Z,2.10
2023-05-17T03:48:15.307Z,2.30
2023-05-17T03:50:45.961Z,2.20
2023-05-17T03:53:16.480Z,2.23
2023-05-17T03:55:47.641Z,1.80
2023-05-17T03:58:17.807Z,2.03
2023-05-17T04:00:46.931Z,2.20
2023-05-17T04:03:20.253Z,2.10
2023-05-17T04:05:50.779Z,1.90
2023-05-17T04:08:21.018Z,2.13
2023-05-17T04:10:49.820Z,1.80
2023-05-17T04:13:18.843Z,1.80
2023-05-17T04:15:50.317Z,2.10
2023-05-17T04:18:24.975Z,1.90
2023-05-17T04:20:53.799Z,2.00
2023-05-17T04:23:24.056Z,2.03
2023-05-17T04:25:53.351Z,2.10
2023-05-17T04:28:23.272Z,2.20
2023-05-17T04:31:21.359Z,2.00
2023-05-17T04:33:50.228Z,1.80
2023-05-17T04:36:19.333Z,2.50
2023-05-17T04:38:49.870Z,1.90
2023-05-17T04:41:22.961Z,2.23
2023-05-17T04:43:51.883Z,2.30
2023-05-17T04:46:27.503Z,1.90
2023-05-17T04:48:57.301Z,1.80
2023-05-17T04:51:27.151Z,1.93
2023-05-17T04:53:58.581Z,1.77
2023-05-17T04:56:56.825Z,1.90
2023-05-17T04:59:46.444Z,2.00
2023-05-17T05:02:15.920Z,2.10
2023-05-17T05:04:45.152Z,2.37
2023-05-17T05:07:15.057Z,1.80
2023-05-17T05:09:45.919Z,1.93
2023-05-17T05:12:16.784Z,2.00
2023-05-17T05:14:46.846Z,2.10
2023-05-17T05:17:16.239Z,2.07
2023-05-17T05:19:45.313Z,1.90
2023-05-17T05:22:14.869Z,2.00
2023-05-17T05:24:45.479Z,1.93
2023-05-17T05:27:15.576Z,2.00
2023-05-17T05:29:44.368Z,2.30
2023-05-17T05:32:13.534Z,2.10
2023-05-17T05:34:46.768Z,2.03
2023-05-17T05:37:17.234Z,1.90
2023-05-17T05:39:49.061Z,1.97
2023-05-17T05:42:18.337Z,2.03
2023-05-17T05:44:47.153Z,2.10
2023-05-17T05:47:17.134Z,2.30
2023-05-17T05:49:46.065Z,2.20
2023-05-17T05:52:14.993Z,2.20
2023-05-17T05:54:43.959Z,2.20
2023-05-17T05:57:14.282Z,2.33
2023-05-17T05:59:43.304Z,2.77
2023-05-17T06:02:16.488Z,2.30
2023-05-17T06:04:51.566Z,2.40
2023-05-17T06:07:20.773Z,2.70
2023-05-17T06:09:54.917Z,2.50
2023-05-17T06:12:25.653Z,2.37
2023-05-17T06:15:04.687Z,2.63
2023-05-17T06:17:40.402Z,2.67
2023-05-17T06:20:13.119Z,2.70
2023-05-17T06:22:42.034Z,3.00
2023-05-17T06:25:11.759Z,2.90
2023-05-17T06:27:42.050Z,2.70
2023-05-17T06:30:11.949Z,2.87
2023-05-17T06:32:40.713Z,3.00
2023-05-17T06:35:10.752Z,3.23
2023-05-17T06:37:39.509Z,2.73
2023-05-17T06:40:16.619Z,3.60
2023-05-17T06:42:47.200Z,3.27
2023-05-17T06:45:16.023Z,3.67
2023-05-17T06:47:44.867Z,3.53
2023-05-17T06:50:13.661Z,3.73
2023-05-17T06:52:42.557Z,3.57
2023-05-17T06:55:11.367Z,3.47
2023-05-17T06:57:40.228Z,3.30
2023-05-17T07:00:11.876Z,3.30
2023-05-17T07:02:41.000Z,3.23
2023-05-17T07:05:10.218Z,2.90
2023-05-17T07:07:38.918Z,2.57
2023-05-17T07:10:09.880Z,2.90
2023-05-17T07:12:39.177Z,2.80
2023-05-17T07:15:10.488Z,3.30
2023-05-17T07:17:39.332Z,3.20
2023-05-17T07:20:09.534Z,2.77
2023-05-17T07:22:39.503Z,3.37
2023-05-17T07:25:11.780Z,3.60
2023-05-17T07:27:40.745Z,3.10
2023-05-17T07:30:12.361Z,3.23
2023-05-17T07:32:41.198Z,3.10
2023-05-17T07:35:10.029Z,3.23
2023-05-17T07:37:38.955Z,3.30
2023-05-17T07:40:09.577Z,3.10
2023-05-17T07:42:38.277Z,3.53
2023-05-17T07:45:08.498Z,2.80
2023-05-17T07:47:38.878Z,3.40
2023-05-17T07:50:08.833Z,3.67
2023-05-17T07:52:37.732Z,3.07
2023-05-17T07:55:13.744Z,3.00
2023-05-17T07:57:44.165Z,3.77
2023-05-17T08:00:13.877Z,3.50
2023-05-17T08:02:44.927Z,3.67
2023-05-17T08:05:13.801Z,3.47
2023-05-17T08:07:42.549Z,3.40
2023-05-17T08:10:12.383Z,3.20
2023-05-17T08:12:41.163Z,3.40
2023-05-17T08:15:10.372Z,3.60
2023-05-17T08:17:39.207Z,3.40
2023-05-17T08:20:11.061Z,3.35
2023-05-17T08:22:39.823Z,3.70
2023-05-17T08:25:09.288Z,3.70
2023-05-17T08:27:37.918Z,3.37
2023-05-17T08:30:11.628Z,3.63
2023-05-17T08:32:45.206Z,4.18
2023-05-17T08:35:21.839Z,3.80
2023-05-17T08:37:50.764Z,3.45
2023-05-17T08:40:22.374Z,3.40
2023-05-17T08:42:52.843Z,3.95
2023-05-17T08:45:22.312Z,3.67
2023-05-17T08:47:51.558Z,3.50
2023-05-17T08:50:22.414Z,3.78
2023-05-17T08:52:53.014Z,3.90
2023-05-17T08:55:22.244Z,3.78
2023-05-17T08:57:51.800Z,4.20
2023-05-17T09:00:26.201Z,3.83
2023-05-17T09:02:55.550Z,3.83
2023-05-17T09:05:26.541Z,3.75
2023-05-17T09:07:57.512Z,3.35
2023-05-17T09:10:26.742Z,3.13
2023-05-17T09:12:55.965Z,3.05
2023-05-17T09:15:27.232Z,3.28
2023-05-17T09:17:57.354Z,3.33
2023-05-17T09:20:34.319Z,3.10
2023-05-17T09:23:04.328Z,4.03
2023-05-17T09:25:33.533Z,3.75
2023-05-17T09:28:03.771Z,3.35
2023-05-17T09:30:34.820Z,3.10
2023-05-17T09:33:08.282Z,3.42
2023-05-17T09:35:40.049Z,3.33
2023-05-17T09:38:13.937Z,3.53
2023-05-17T09:40:44.171Z,3.17
2023-05-17T09:43:14.023Z,3.38
2023-05-17T09:45:42.819Z,3.00
2023-05-17T09:48:19.481Z,3.17
2023-05-17T09:51:03.945Z,3.30
2023-05-17T09:53:42.690Z,3.40
2023-05-17T09:56:12.479Z,3.45
2023-05-17T09:58:44.551Z,3.10
2023-05-17T10:01:13.726Z,3.10
2023-05-17T10:03:43.036Z,3.40
2023-05-17T10:06:23.799Z,3.37
2023-05-17T10:09:05.385Z,3.27
2023-05-17T10:11:36.869Z,3.20
2023-05-17T10:14:11.384Z,3.40
2023-05-17T10:16:40.729Z,3.17
2023-05-17T10:19:10.360Z,3.40
2023-05-17T10:21:42.568Z,3.40
2023-05-17T10:24:12.928Z,3.17
2023-05-17T10:26:43.517Z,3.30
2023-05-17T10:29:12.816Z,2.97
2023-05-17T10:31:46.682Z,3.00
2023-05-17T10:34:45.866Z,3.33
2023-05-17T10:37:20.957Z,3.23
2023-05-17T10:39:51.260Z,2.90
2023-05-17T10:42:21.462Z,3.00
2023-05-17T10:44:51.052Z,2.93
2023-05-17T10:47:51.844Z,3.17
2023-05-17T10:50:24.402Z,2.90
2023-05-17T10:52:59.885Z,3.33
2023-05-17T10:55:40.812Z,3.07
2023-05-17T10:58:42.518Z,3.10
2023-05-17T11:01:56.802Z,3.17
2023-05-17T11:04:26.914Z,3.27
2023-05-17T11:07:16.882Z,3.22
2023-05-17T11:09:48.485Z,3.42
2023-05-17T11:12:18.759Z,2.95
2023-05-17T11:14:53.890Z,2.90
2023-05-17T11:17:25.384Z,2.78
2023-05-17T11:20:02.891Z,3.10
2023-05-17T11:22:40.239Z,3.05
2023-05-17T11:25:13.038Z,3.40
2023-05-17T11:27:48.447Z,3.20
2023-05-17T11:30:23.612Z,3.08
2023-05-17T11:32:55.396Z,3.15
2023-05-17T11:35:31.366Z,3.30
2023-05-17T11:38:15.707Z,3.30
2023-05-17T11:40:47.642Z,3.80
2023-05-17T11:44:02.842Z,3.50
2023-05-17T11:47:06.185Z,3.90
2023-05-17T11:50:02.539Z,3.17
2023-05-17T11:52:33.064Z,3.42
2023-05-17T11:55:11.522Z,3.60
2023-05-17T11:57:49.416Z,3.33
2023-05-17T12:00:27.267Z,3.33
2023-05-17T12:04:02.331Z,3.70
2023-05-17T12:06:39.947Z,3.40
2023-05-17T12:12:39.045Z,3.10
2023-05-17T12:15:47.373Z,3.45
2023-05-17T12:18:46.489Z,3.17
2023-05-17T12:21:38.753Z,3.10
2023-05-17T12:28:03.662Z,4.05
2023-05-17T12:30:54.380Z,3.20
2023-05-17T12:33:44.660Z,3.50
2023-05-17T12:36:34.039Z,3.50
2023-05-17T12:39:19.027Z,3.55
2023-05-17T12:42:25.426Z,3.47
2023-05-17T12:46:01.826Z,3.38
2023-05-17T12:50:14.464Z,3.05
2023-05-17T12:53:24.837Z,3.38
2023-05-17T12:55:59.206Z,3.22
2023-05-17T12:58:35.729Z,3.47
2023-05-17T13:01:34.200Z,3.65
2023-05-17T13:04:03.798Z,3.03
2023-05-17T13:06:51.453Z,3.35
2023-05-17T13:09:24.245Z,3.58
2023-05-17T13:11:54.097Z,3.42
2023-05-17T13:14:37.227Z,3.55
2023-05-17T13:17:07.520Z,3.67
2023-05-17T13:19:39.267Z,3.38
2023-05-17T13:22:08.753Z,3.20
2023-05-17T13:24:40.322Z,3.28
2023-05-17T13:27:09.452Z,3.28
2023-05-17T13:29:40.888Z,3.33
2023-05-17T13:32:11.858Z,3.40
2023-05-17T13:34:41.839Z,3.08
2023-05-17T13:37:12.376Z,3.10
2023-05-17T13:39:43.961Z,3.30
2023-05-17T13:42:13.473Z,3.20
2023-05-17T13:44:42.666Z,2.95
2023-05-17T13:47:12.024Z,3.13
2023-05-17T13:49:41.365Z,3.35
2023-05-17T13:52:12.691Z,3.30
2023-05-17T13:54:43.093Z,2.83
2023-05-17T13:57:11.905Z,3.03
2023-05-17T13:59:40.969Z,2.97
2023-05-17T14:02:10.651Z,3.35
2023-05-17T14:04:39.687Z,3.50
2023-05-17T14:07:08.779Z,3.17
2023-05-17T14:09:37.824Z,3.00
2023-05-17T14:12:08.743Z,3.22
2023-05-17T14:14:37.685Z,3.42
2023-05-17T14:17:06.782Z,3.30
2023-05-17T14:19:35.851Z,2.88
2023-05-17T14:22:05.470Z,3.33
2023-05-17T14:24:36.206Z,3.30
2023-05-17T14:27:06.123Z,3.38
2023-05-17T14:29:37.241Z,3.00
2023-05-17T14:32:07.480Z,3.15
2023-05-17T14:34:36.596Z,3.13
2023-05-17T14:37:06.314Z,2.70
2023-05-17T14:39:35.426Z,3.13
2023-05-17T14:42:11.250Z,2.75
2023-05-17T14:44:42.026Z,3.05
2023-05-17T14:47:12.235Z,2.90
2023-05-17T14:49:42.942Z,3.10
2023-05-17T14:52:13.015Z,3.10
2023-05-17T14:54:42.960Z,2.90
2023-05-17T14:57:12.256Z,3.05
2023-05-17T14:59:45.154Z,2.88
2023-05-17T15:02:14.730Z,2.65
2023-05-17T15:04:44.899Z,2.90
2023-05-17T15:07:15.131Z,2.80
2023-05-17T15:10:15.292Z,3.10
2023-05-17T15:12:52.455Z,2.90
2023-05-17T15:15:31.936Z,2.90
2023-05-17T15:18:01.854Z,2.70
2023-05-17T15:20:31.621Z,3.03
2023-05-17T15:23:05.684Z,3.00
2023-05-17T15:25:35.112Z,2.92
2023-05-17T15:28:04.106Z,3.03
2023-05-17T15:30:37.769Z,3.50
2023-05-17T15:33:06.809Z,2.55
2023-05-17T15:35:35.917Z,2.80
2023-05-17T15:38:07.366Z,2.58
2023-05-17T15:40:36.489Z,2.85
2023-05-17T15:43:07.630Z,2.78
2023-05-17T15:45:38.315Z,2.67
2023-05-17T15:48:11.573Z,2.70
2023-05-17T15:50:43.954Z,2.80
2023-05-17T15:53:13.216Z,2.60
2023-05-17T15:55:42.413Z,2.65
2023-05-17T15:58:15.280Z,2.40
2023-05-17T16:00:45.534Z,2.58
2023-05-17T16:03:15.323Z,3.00
2023-05-17T16:06:11.417Z,2.50
2023-05-17T16:08:40.560Z,2.63
2023-05-17T16:11:10.158Z,3.05
2023-05-17T16:13:41.398Z,2.70
2023-05-17T16:16:13.495Z,2.65
2023-05-17T16:18:42.620Z,2.60
2023-05-17T16:21:11.662Z,2.90
2023-05-17T16:23:41.102Z,3.00
2023-05-17T16:26:10.502Z,2.70
2023-05-17T16:28:39.585Z,3.03
2023-05-17T16:31:08.815Z,2.50
2023-05-17T16:33:41.743Z,2.72
2023-05-17T16:36:37.040Z,2.65
2023-05-17T16:39:07.207Z,3.00
2023-05-17T16:41:36.421Z,2.60
2023-05-17T16:44:05.283Z,2.78
2023-05-17T16:46:34.421Z,2.63
2023-05-17T16:49:04.908Z,2.58
2023-05-17T16:51:33.885Z,2.72
2023-05-17T16:54:02.746Z,2.38
2023-05-17T16:56:32.616Z,2.78
2023-05-17T16:59:01.426Z,2.60
2023-05-17T17:01:30.132Z,2.67
2023-05-17T17:03:59.062Z,2.95
2023-05-17T17:06:29.498Z,2.70
2023-05-17T17:08:58.404Z,2.80
2023-05-17T17:11:29.664Z,2.45
2023-05-17T17:13:58.794Z,2.55
2023-05-17T17:16:27.782Z,2.67
2023-05-17T17:18:58.697Z,2.72
2023-05-17T17:21:29.087Z,2.80
2023-05-17T17:23:59.324Z,2.80
2023-05-17T17:26:30.251Z,2.50
2023-05-17T17:28:59.597Z,2.65
2023-05-17T17:31:30.307Z,2.50
2023-05-17T17:33:59.478Z,2.40
2023-05-17T17:36:30.554Z,2.50
2023-05-17T17:38:59.335Z,2.60
2023-05-17T17:41:28.036Z,2.80
2023-05-17T17:43:56.837Z,2.58
2023-05-17T17:46:26.575Z,2.95
2023-05-17T17:48:56.794Z,2.80
2023-05-17T17:51:25.685Z,2.42
2023-05-17T17:53:56.318Z,2.30
2023-05-17T17:56:25.949Z,2.40
2023-05-17T17:58:56.360Z,2.35
2023-05-17T18:01:25.797Z,2.80
2023-05-17T18:03:54.805Z,2.50
2023-05-17T18:06:24.431Z,2.42
2023-05-17T18:08:56.708Z,2.75
2023-05-17T18:11:26.637Z,2.90
2023-05-17T18:14:25.323Z,2.70
2023-05-17T18:16:54.904Z,2.70
2023-05-17T18:19:24.308Z,2.58
2023-05-17T18:21:53.554Z,2.90
2023-05-17T18:24:24.157Z,2.85
2023-05-17T18:26:53.145Z,2.95
2023-05-17T18:29:22.196Z,3.03
2023-05-17T18:31:52.187Z,2.88
2023-05-17T18:34:21.211Z,2.90
2023-05-17T18:36:50.409Z,2.63
2023-05-17T18:39:19.265Z,2.60
2023-05-17T18:41:50.014Z,3.17
2023-05-17T18:44:20.056Z,3.00
2023-05-17T18:46:50.148Z,2.97
2023-05-17T18:49:21.438Z,3.30
2023-05-17T18:51:52.484Z,3.15
2023-05-17T18:54:23.654Z,3.10
2023-05-17T18:56:54.398Z,2.90
2023-05-17T18:59:23.529Z,3.57
2023-05-17T19:01:52.899Z,3.53
2023-05-17T19:04:27.010Z,4.00
2023-05-17T19:06:59.203Z,3.53
2023-05-17T19:09:32.069Z,3.63
2023-05-17T19:12:02.948Z,3.57
2023-05-17T19:14:33.987Z,3.30
2023-05-17T19:17:03.551Z,3.63
2023-05-17T19:19:32.676Z,3.73
2023-05-17T19:22:02.486Z,3.60
2023-05-17T19:24:32.157Z,3.43
2023-05-17T19:27:02.732Z,3.10
2023-05-17T19:29:33.358Z,3.07
2023-05-17T19:32:02.373Z,2.83
2023-05-17T19:34:31.459Z,3.00
2023-05-17T19:37:01.107Z,3.30
2023-05-17T19:39:30.248Z,3.03
2023-05-17T19:41:59.266Z,3.13
2023-05-17T19:44:29.936Z,3.90
2023-05-17T19:46:59.335Z,3.07
2023-05-17T19:49:35.853Z,3.10
2023-05-17T19:52:05.279Z,3.20
2023-05-17T19:54:34.799Z,3.13
2023-05-17T19:57:14.176Z,3.33
2023-05-17T19:59:45.365Z,3.10
2023-05-17T20:02:14.460Z,3.07
2023-05-17T20:04:43.641Z,3.40
2023-05-17T20:07:12.784Z,2.90
2023-05-17T20:09:41.830Z,3.17
2023-05-17T20:12:11.183Z,3.40
2023-05-17T20:14:40.174Z,3.00
2023-05-17T20:17:10.690Z,3.10
2023-05-17T20:19:39.531Z,3.30
2023-05-17T20:22:08.538Z,3.10
2023-05-17T20:24:37.604Z,3.10
2023-05-17T20:27:09.193Z,2.97
2023-05-17T20:29:38.540Z,2.70
2023-05-17T20:32:08.922Z,3.33
2023-05-17T20:34:39.565Z,3.07
2023-05-17T20:37:08.504Z,2.90
2023-05-17T20:39:37.538Z,2.70
2023-05-17T20:42:07.926Z,2.93
2023-05-17T20:44:37.292Z,2.83
2023-05-17T20:47:06.771Z,2.70
2023-05-17T20:49:36.269Z,2.90
2023-05-17T20:52:07.299Z,2.77
2023-05-17T20:54:37.219Z,3.10
2023-05-17T20:57:06.810Z,2.73
2023-05-17T20:59:36.835Z,3.03
2023-05-17T21:02:08.440Z,3.20
2023-05-17T21:04:38.067Z,2.90
2023-05-17T21:07:12.106Z,3.17
2023-05-17T21:09:42.123Z,3.07
2023-05-17T21:12:11.482Z,3.17
2023-05-17T21:14:40.538Z,3.20
2023-05-17T21:17:10.239Z,3.20
2023-05-17T21:19:44.134Z,3.10
2023-05-17T21:22:14.843Z,3.60
2023-05-17T21:24:44.023Z,3.20
2023-05-17T21:27:13.282Z,3.50
2023-05-17T21:29:42.493Z,3.70
2023-05-17T21:32:11.618Z,4.17
2023-05-17T21:34:41.164Z,3.80
2023-05-17T21:37:10.402Z,3.77
2023-05-17T21:39:44.758Z,3.40
2023-05-17T21:42:14.480Z,3.57
2023-05-17T21:44:43.920Z,3.40
2023-05-17T21:47:14.406Z,3.40
2023-05-17T21:49:49.452Z,3.30
2023-05-17T21:52:19.180Z,3.50
2023-05-17T21:54:50.152Z,3.30
2023-05-17T21:57:21.304Z,3.63
2023-05-17T21:59:54.627Z,3.50
2023-05-17T22:02:28.439Z,3.30
2023-05-17T22:04:58.058Z,3.33
2023-05-17T22:07:29.392Z,3.50
2023-05-17T22:10:10.052Z,3.27
2023-05-17T22:12:40.759Z,3.70
2023-05-17T22:15:16.896Z,3.50
2023-05-17T22:18:04.597Z,3.60
2023-05-17T22:20:34.278Z,3.30
2023-05-17T22:23:04.504Z,3.83
2023-05-17T22:25:36.952Z,3.40
2023-05-17T22:28:06.819Z,3.60
2023-05-17T22:30:36.635Z,3.80
2023-05-17T22:33:09.250Z,3.50
2023-05-17T22:35:38.860Z,3.63
2023-05-17T22:38:08.082Z,3.50
2023-05-17T22:40:38.888Z,3.67
2023-05-17T22:43:08.386Z,3.40
2023-05-17T22:45:37.321Z,3.70
2023-05-17T22:48:06.989Z,3.30
2023-05-17T22:50:36.526Z,3.10
2023-05-17T22:53:06.067Z,3.63
2023-05-17T22:55:34.942Z,3.10
2023-05-17T22:58:05.341Z,3.10
2023-05-17T23:00:34.381Z,3.13
2023-05-17T23:03:03.282Z,3.17
2023-05-17T23:05:33.702Z,3.60
2023-05-17T23:08:02.554Z,3.33
2023-05-17T23:10:31.650Z,3.23
2023-05-17T23:13:00.541Z,3.60
2023-05-17T23:15:34.364Z,3.53
2023-05-17T23:18:03.428Z,3.80
2023-05-17T23:20:32.385Z,3.90
2023-05-17T23:23:01.845Z,3.43
2023-05-17T23:25:31.755Z,3.60
2023-05-17T23:28:00.778Z,3.80
2023-05-17T23:30:31.215Z,3.60
2023-05-17T23:33:00.391Z,4.17
2023-05-17T23:35:29.417Z,3.53
2023-05-17T23:37:58.627Z,4.07
2023-05-17T23:40:27.593Z,4.30
2023-05-17T23:42:56.777Z,4.37
2023-05-17T23:45:25.733Z,4.50
2023-05-17T23:47:57.763Z,4.23
2023-05-17T23:50:26.813Z,4.63
2023-05-17T23:52:56.085Z,4.43
2023-05-17T23:55:25.149Z,4.13
2023-05-17T23:57:53.943Z,4.37
